sensor_id;sensor_type;location;lat;lon;timestamp;pressure;altitude;pressure_sealevel;temperature;humidity
47913;BME280;33676;51.006;17.180;2022-10-04T00:02:01;100472.99;;;11.36;100.00
47913;BME280;33676;51.006;17.180;2022-10-04T00:04:52;100471.83;;;11.35;100.00
47913;BME280;33676;51.006;17.180;2022-10-04T00:07:39;100476.23;;;11.34;100.00
47913;BME280;33676;51.006;17.180;2022-10-04T00:10:21;100472.17;;;11.35;100.00
47913;BME280;33676;51.006;17.180;2022-10-04T00:13:06;100468.55;;;11.34;100.00
47913;BME280;33676;51.006;17.180;2022-10-04T00:15:42;100469.52;;;11.35;100.00
47913;BME280;33676;51.006;17.180;2022-10-04T00:18:30;100467.58;;;11.36;100.00
47913;BME280;33676;51.006;17.180;2022-10-04T00:21:02;100461.98;;;11.35;100.00
47913;BME280;33676;51.006;17.180;2022-10-04T00:23:42;100464.66;;;11.35;100.00
47913;BME280;33676;51.006;17.180;2022-10-04T00:28:54;100455.83;;;11.36;100.00
47913;BME280;33676;51.006;17.180;2022-10-04T00:31:25;100454.92;;;11.36;100.00
47913;BME280;33676;51.006;17.180;2022-10-04T00:36:53;100454.06;;;11.36;100.00
47913;BME280;33676;51.006;17.180;2022-10-04T00:42:07;100452.76;;;11.37;100.00
47913;BME280;33676;51.006;17.180;2022-10-04T00:45:35;100450.10;;;11.37;100.00
47913;BME280;33676;51.006;17.180;2022-10-04T00:50:50;100442.17;;;11.38;100.00
47913;BME280;33676;51.006;17.180;2022-10-04T00:54:00;100441.89;;;11.37;100.00
47913;BME280;33676;51.006;17.180;2022-10-04T00:57:00;100454.38;;;11.37;100.00
47913;BME280;33676;51.006;17.180;2022-10-04T00:59:47;100450.05;;;11.36;100.00
47913;BME280;33676;51.006;17.180;2022-10-04T01:02:22;100439.84;;;11.34;100.00
47913;BME280;33676;51.006;17.180;2022-10-04T01:05:06;100442.71;;;11.34;100.00
47913;BME280;33676;51.006;17.180;2022-10-04T01:08:13;100443.83;;;11.33;100.00
47913;BME280;33676;51.006;17.180;2022-10-04T01:16:24;100450.15;;;11.23;100.00
47913;BME280;33676;51.006;17.180;2022-10-04T01:18:56;100453.40;;;11.20;100.00
47913;BME280;33676;51.006;17.180;2022-10-04T01:21:45;100456.45;;;11.17;100.00
47913;BME280;33676;51.006;17.180;2022-10-04T01:24:16;100449.86;;;11.13;100.00
47913;BME280;33676;51.006;17.180;2022-10-04T01:26:45;100443.84;;;11.10;100.00
47913;BME280;33676;51.006;17.180;2022-10-04T01:29:25;100443.17;;;11.07;100.00
47913;BME280;33676;51.006;17.180;2022-10-04T01:31:56;100446.95;;;11.04;100.00
47913;BME280;33676;51.006;17.180;2022-10-04T01:34:28;100442.95;;;11.01;100.00
47913;BME280;33676;51.006;17.180;2022-10-04T01:36:59;100448.73;;;10.99;100.00
47913;BME280;33676;51.006;17.180;2022-10-04T01:39:29;100445.27;;;10.98;100.00
47913;BME280;33676;51.006;17.180;2022-10-04T01:42:14;100450.29;;;10.97;100.00
47913;BME280;33676;51.006;17.180;2022-10-04T01:45:24;100451.41;;;10.95;100.00
47913;BME280;33676;51.006;17.180;2022-10-04T01:48:00;100446.07;;;10.94;100.00
47913;BME280;33676;51.006;17.180;2022-10-04T01:50:46;100454.08;;;10.95;100.00
47913;BME280;33676;51.006;17.180;2022-10-04T01:53:25;100450.02;;;10.95;100.00
47913;BME280;33676;51.006;17.180;2022-10-04T01:56:30;100453.95;;;10.97;100.00
47913;BME280;33676;51.006;17.180;2022-10-04T01:59:20;100452.70;;;10.97;100.00
47913;BME280;33676;51.006;17.180;2022-10-04T02:02:21;100451.62;;;10.97;100.00
47913;BME280;33676;51.006;17.180;2022-10-04T02:05:17;100454.09;;;10.97;100.00
47913;BME280;33676;51.006;17.180;2022-10-04T02:07:53;100449.98;;;10.98;100.00
47913;BME280;33676;51.006;17.180;2022-10-04T02:10:24;100447.52;;;10.99;100.00
47913;BME280;33676;51.006;17.180;2022-10-04T02:13:13;100452.60;;;10.98;100.00
47913;BME280;33676;51.006;17.180;2022-10-04T02:15:46;100449.05;;;10.97;100.00
47913;BME280;33676;51.006;17.180;2022-10-04T02:18:21;100443.83;;;10.94;100.00
47913;BME280;33676;51.006;17.180;2022-10-04T02:20:54;100438.86;;;10.91;100.00
47913;BME280;33676;51.006;17.180;2022-10-04T02:23:27;100445.58;;;10.88;100.00
47913;BME280;33676;51.006;17.180;2022-10-04T02:25:58;100446.27;;;10.83;100.00
47913;BME280;33676;51.006;17.180;2022-10-04T02:28:26;100443.26;;;10.79;100.00
47913;BME280;33676;51.006;17.180;2022-10-04T02:30:58;100447.02;;;10.76;100.00
47913;BME280;33676;51.006;17.180;2022-10-04T02:33:50;100449.91;;;10.72;100.00
47913;BME280;33676;51.006;17.180;2022-10-04T02:36:25;100450.42;;;10.70;100.00
47913;BME280;33676;51.006;17.180;2022-10-04T02:42:20;100447.23;;;10.66;100.00
47913;BME280;33676;51.006;17.180;2022-10-04T02:45:05;100449.21;;;10.65;100.00
47913;BME280;33676;51.006;17.180;2022-10-04T02:47:56;100450.88;;;10.64;100.00
47913;BME280;33676;51.006;17.180;2022-10-04T02:50:44;100455.58;;;10.62;100.00
47913;BME280;33676;51.006;17.180;2022-10-04T02:53:21;100455.58;;;10.59;100.00
47913;BME280;33676;51.006;17.180;2022-10-04T02:55:54;100452.95;;;10.57;100.00
47913;BME280;33676;51.006;17.180;2022-10-04T02:58:28;100457.38;;;10.54;100.00
47913;BME280;33676;51.006;17.180;2022-10-04T03:00:59;100454.07;;;10.51;100.00
47913;BME280;33676;51.006;17.180;2022-10-04T03:03:34;100450.38;;;10.50;100.00
47913;BME280;33676;51.006;17.180;2022-10-04T03:06:12;100448.75;;;10.48;100.00
47913;BME280;33676;51.006;17.180;2022-10-04T03:08:46;100447.86;;;10.48;100.00
47913;BME280;33676;51.006;17.180;2022-10-04T03:11:21;100447.77;;;10.47;100.00
47913;BME280;33676;51.006;17.180;2022-10-04T03:13:56;100448.27;;;10.45;100.00
47913;BME280;33676;51.006;17.180;2022-10-04T03:16:36;100449.09;;;10.44;100.00
47913;BME280;33676;51.006;17.180;2022-10-04T03:19:24;100451.80;;;10.42;100.00
47913;BME280;33676;51.006;17.180;2022-10-04T03:22:03;100450.86;;;10.41;100.00
47913;BME280;33676;51.006;17.180;2022-10-04T03:24:44;100452.73;;;10.39;100.00
47913;BME280;33676;51.006;17.180;2022-10-04T03:27:29;100451.29;;;10.38;100.00
47913;BME280;33676;51.006;17.180;2022-10-04T03:30:00;100443.06;;;10.36;100.00
47913;BME280;33676;51.006;17.180;2022-10-04T03:32:30;100447.38;;;10.34;100.00
47913;BME280;33676;51.006;17.180;2022-10-04T03:35:04;100449.27;;;10.32;100.00
47913;BME280;33676;51.006;17.180;2022-10-04T03:37:36;100448.19;;;10.30;100.00
47913;BME280;33676;51.006;17.180;2022-10-04T03:40:09;100446.14;;;10.27;100.00
47913;BME280;33676;51.006;17.180;2022-10-04T03:42:38;100452.56;;;10.23;100.00
47913;BME280;33676;51.006;17.180;2022-10-04T03:45:16;100453.04;;;10.21;100.00
47913;BME280;33676;51.006;17.180;2022-10-04T03:47:51;100453.87;;;10.19;100.00
47913;BME280;33676;51.006;17.180;2022-10-04T03:50:26;100455.07;;;10.17;100.00
47913;BME280;33676;51.006;17.180;2022-10-04T03:53:07;100453.89;;;10.14;100.00
47913;BME280;33676;51.006;17.180;2022-10-04T03:55:40;100459.81;;;10.12;100.00
47913;BME280;33676;51.006;17.180;2022-10-04T03:58:14;100457.60;;;10.11;100.00
47913;BME280;33676;51.006;17.180;2022-10-04T04:01:16;100458.88;;;10.10;100.00
47913;BME280;33676;51.006;17.180;2022-10-04T04:04:34;100458.48;;;10.09;100.00
47913;BME280;33676;51.006;17.180;2022-10-04T04:07:19;100462.09;;;10.09;100.00
47913;BME280;33676;51.006;17.180;2022-10-04T04:10:30;100466.09;;;10.10;100.00
47913;BME280;33676;51.006;17.180;2022-10-04T04:15:51;100470.63;;;10.12;100.00
47913;BME280;33676;51.006;17.180;2022-10-04T04:18:26;100472.98;;;10.14;100.00
47913;BME280;33676;51.006;17.180;2022-10-04T04:21:04;100469.58;;;10.15;100.00
47913;BME280;33676;51.006;17.180;2022-10-04T04:23:46;100470.41;;;10.15;100.00
47913;BME280;33676;51.006;17.180;2022-10-04T04:26:41;100469.42;;;10.14;100.00
47913;BME280;33676;51.006;17.180;2022-10-04T04:29:46;100467.04;;;10.13;100.00
47913;BME280;33676;51.006;17.180;2022-10-04T04:32:32;100468.02;;;10.12;100.00
47913;BME280;33676;51.006;17.180;2022-10-04T04:35:19;100470.76;;;10.10;100.00
47913;BME280;33676;51.006;17.180;2022-10-04T04:38:24;100471.81;;;10.08;100.00
47913;BME280;33676;51.006;17.180;2022-10-04T04:40:53;100472.35;;;10.05;100.00
47913;BME280;33676;51.006;17.180;2022-10-04T04:43:26;100471.66;;;10.03;100.00
47913;BME280;33676;51.006;17.180;2022-10-04T04:45:55;100473.09;;;10.00;100.00
47913;BME280;33676;51.006;17.180;2022-10-04T04:48:47;100477.18;;;9.96;100.00
47913;BME280;33676;51.006;17.180;2022-10-04T04:51:21;100478.74;;;9.94;100.00
47913;BME280;33676;51.006;17.180;2022-10-04T04:53:53;100486.69;;;9.93;100.00
47913;BME280;33676;51.006;17.180;2022-10-04T04:56:26;100485.98;;;9.90;100.00
47913;BME280;33676;51.006;17.180;2022-10-04T04:58:59;100488.20;;;9.88;100.00
47913;BME280;33676;51.006;17.180;2022-10-04T05:01:41;100485.02;;;9.87;100.00
47913;BME280;33676;51.006;17.180;2022-10-04T05:04:14;100491.63;;;9.85;100.00
47913;BME280;33676;51.006;17.180;2022-10-04T05:07:05;100489.90;;;9.85;100.00
47913;BME280;33676;51.006;17.180;2022-10-04T05:09:46;100494.34;;;9.84;100.00
47913;BME280;33676;51.006;17.180;2022-10-04T05:12:21;100494.18;;;9.84;100.00
47913;BME280;33676;51.006;17.180;2022-10-04T05:14:51;100497.68;;;9.84;100.00
47913;BME280;33676;51.006;17.180;2022-10-04T05:17:24;100497.20;;;9.83;100.00
47913;BME280;33676;51.006;17.180;2022-10-04T05:19:59;100500.41;;;9.82;100.00
47913;BME280;33676;51.006;17.180;2022-10-04T05:22:33;100502.12;;;9.82;100.00
47913;BME280;33676;51.006;17.180;2022-10-04T05:25:09;100503.17;;;9.82;100.00
47913;BME280;33676;51.006;17.180;2022-10-04T05:27:44;100508.63;;;9.82;100.00
47913;BME280;33676;51.006;17.180;2022-10-04T05:30:57;100509.25;;;9.80;100.00
47913;BME280;33676;51.006;17.180;2022-10-04T05:34:17;100516.71;;;9.79;100.00
47913;BME280;33676;51.006;17.180;2022-10-04T05:40:28;100521.27;;;9.78;100.00
47913;BME280;33676;51.006;17.180;2022-10-04T05:42:59;100523.58;;;9.80;100.00
47913;BME280;33676;51.006;17.180;2022-10-04T05:45:30;100530.89;;;9.83;100.00
47913;BME280;33676;51.006;17.180;2022-10-04T05:48:05;100539.14;;;9.87;100.00
47913;BME280;33676;51.006;17.180;2022-10-04T05:50:41;100538.23;;;9.92;100.00
47913;BME280;33676;51.006;17.180;2022-10-04T05:53:32;100544.20;;;10.00;100.00
47913;BME280;33676;51.006;17.180;2022-10-04T05:59:35;100550.00;;;10.18;100.00
47913;BME280;33676;51.006;17.180;2022-10-04T06:05:43;100553.34;;;10.40;100.00
47913;BME280;33676;51.006;17.180;2022-10-04T06:11:49;100557.33;;;10.55;100.00
47913;BME280;33676;51.006;17.180;2022-10-04T06:15:23;100558.54;;;10.59;100.00
47913;BME280;33676;51.006;17.180;2022-10-04T06:18:22;100562.10;;;10.64;100.00
47913;BME280;33676;51.006;17.180;2022-10-04T06:21:19;100567.19;;;10.66;100.00
47913;BME280;33676;51.006;17.180;2022-10-04T06:24:12;100565.30;;;10.70;100.00
47913;BME280;33676;51.006;17.180;2022-10-04T06:26:51;100565.66;;;10.77;100.00
47913;BME280;33676;51.006;17.180;2022-10-04T06:29:29;100572.90;;;10.85;100.00
47913;BME280;33676;51.006;17.180;2022-10-04T06:34:55;100571.98;;;11.04;100.00
47913;BME280;33676;51.006;17.180;2022-10-04T06:47:25;100582.62;;;11.59;100.00
47913;BME280;33676;51.006;17.180;2022-10-04T06:53:31;100585.88;;;11.79;100.00
47913;BME280;33676;51.006;17.180;2022-10-04T06:59:55;100591.27;;;11.90;100.00
47913;BME280;33676;51.006;17.180;2022-10-04T07:02:43;100595.36;;;11.96;100.00
47913;BME280;33676;51.006;17.180;2022-10-04T07:05:33;100602.27;;;12.04;100.00
47913;BME280;33676;51.006;17.180;2022-10-04T07:11:29;100610.08;;;12.27;100.00
47913;BME280;33676;51.006;17.180;2022-10-04T07:14:08;100607.92;;;12.36;100.00
47913;BME280;33676;51.006;17.180;2022-10-04T07:16:49;100612.23;;;12.42;100.00
47913;BME280;33676;51.006;17.180;2022-10-04T07:19:44;100617.41;;;12.47;100.00
47913;BME280;33676;51.006;17.180;2022-10-04T07:25:32;100625.90;;;12.58;100.00
47913;BME280;33676;51.006;17.180;2022-10-04T07:28:16;100627.14;;;12.60;100.00
47913;BME280;33676;51.006;17.180;2022-10-04T07:31:33;100625.48;;;12.64;100.00
47913;BME280;33676;51.006;17.180;2022-10-04T07:34:24;100623.56;;;12.66;100.00
47913;BME280;33676;51.006;17.180;2022-10-04T07:36:57;100627.89;;;12.67;100.00
47913;BME280;33676;51.006;17.180;2022-10-04T07:39:40;100625.35;;;12.70;100.00
47913;BME280;33676;51.006;17.180;2022-10-04T07:42:45;100624.04;;;12.75;100.00
47913;BME280;33676;51.006;17.180;2022-10-04T07:45:27;100622.75;;;12.82;100.00
47913;BME280;33676;51.006;17.180;2022-10-04T07:48:16;100628.80;;;12.90;100.00
47913;BME280;33676;51.006;17.180;2022-10-04T07:54:57;100639.30;;;13.03;100.00
47913;BME280;33676;51.006;17.180;2022-10-04T08:04:14;100641.81;;;13.30;100.00
47913;BME280;33676;51.006;17.180;2022-10-04T08:07:01;100643.14;;;13.39;100.00
47913;BME280;33676;51.006;17.180;2022-10-04T08:09:53;100641.20;;;13.46;100.00
47913;BME280;33676;51.006;17.180;2022-10-04T08:15:37;100647.95;;;13.79;100.00
47913;BME280;33676;51.006;17.180;2022-10-04T08:19:29;100649.45;;;13.93;100.00
47913;BME280;33676;51.006;17.180;2022-10-04T08:22:27;100651.31;;;14.08;100.00
47913;BME280;33676;51.006;17.180;2022-10-04T08:28:03;100657.23;;;14.16;100.00
47913;BME280;33676;51.006;17.180;2022-10-04T08:46:40;100666.23;;;14.98;100.00
47913;BME280;33676;51.006;17.180;2022-10-04T08:49:33;100665.30;;;15.13;100.00
47913;BME280;33676;51.006;17.180;2022-10-04T08:55:46;100666.90;;;15.78;100.00
47913;BME280;33676;51.006;17.180;2022-10-04T09:07:23;100673.41;;;15.80;100.00
47913;BME280;33676;51.006;17.180;2022-10-04T09:13:22;100680.95;;;16.36;100.00
47913;BME280;33676;51.006;17.180;2022-10-04T09:16:17;100677.48;;;16.43;100.00
47913;BME280;33676;51.006;17.180;2022-10-04T09:22:54;100682.48;;;16.36;98.92
47913;BME280;33676;51.006;17.180;2022-10-04T09:25:47;100688.46;;;16.70;99.73
47913;BME280;33676;51.006;17.180;2022-10-04T09:28:30;100688.05;;;17.08;99.37
47913;BME280;33676;51.006;17.180;2022-10-04T09:31:43;100686.76;;;17.39;97.86
47913;BME280;33676;51.006;17.180;2022-10-04T09:34:36;100688.07;;;17.38;96.32
47913;BME280;33676;51.006;17.180;2022-10-04T09:37:30;100693.13;;;17.08;95.08
47913;BME280;33676;51.006;17.180;2022-10-04T09:40:32;100701.09;;;16.70;93.60
47913;BME280;33676;51.006;17.180;2022-10-04T09:49:27;100707.46;;;15.83;92.21
47913;BME280;33676;51.006;17.180;2022-10-04T10:01:21;100710.84;;;15.66;93.56
47913;BME280;33676;51.006;17.180;2022-10-04T10:04:24;100713.68;;;16.18;94.12
47913;BME280;33676;51.006;17.180;2022-10-04T10:16:23;100710.33;;;17.06;92.51
47913;BME280;33676;51.006;17.180;2022-10-04T10:22:25;100716.11;;;16.67;90.34
47913;BME280;33676;51.006;17.180;2022-10-04T10:25:20;100722.64;;;16.70;89.66
47913;BME280;33676;51.006;17.180;2022-10-04T10:28:31;100723.06;;;16.75;89.33
47913;BME280;33676;51.006;17.180;2022-10-04T10:44:13;100715.59;;;17.84;84.89
47913;BME280;33676;51.006;17.180;2022-10-04T10:47:19;100728.31;;;17.54;85.01
47913;BME280;33676;51.006;17.180;2022-10-04T10:53:18;100728.56;;;17.57;84.16
47913;BME280;33676;51.006;17.180;2022-10-04T10:56:07;100726.38;;;17.78;84.42
47913;BME280;33676;51.006;17.180;2022-10-04T11:06:29;100719.11;;;19.04;85.22
47913;BME280;33676;51.006;17.180;2022-10-04T11:12:25;100730.45;;;18.83;81.87
47913;BME280;33676;51.006;17.180;2022-10-04T11:15:04;100732.32;;;18.63;80.16
47913;BME280;33676;51.006;17.180;2022-10-04T11:29:22;100729.73;;;19.47;82.18
47913;BME280;33676;51.006;17.180;2022-10-04T11:37:39;100737.89;;;18.84;79.41
47913;BME280;33676;51.006;17.180;2022-10-04T11:41:33;100739.70;;;19.14;79.24
47913;BME280;33676;51.006;17.180;2022-10-04T11:47:38;100744.34;;;19.61;76.71
47913;BME280;33676;51.006;17.180;2022-10-04T11:50:37;100738.95;;;19.75;76.68
47913;BME280;33676;51.006;17.180;2022-10-04T12:15:42;100751.66;;;21.08;72.69
47913;BME280;33676;51.006;17.180;2022-10-04T12:21:39;100752.15;;;20.19;70.99
47913;BME280;33676;51.006;17.180;2022-10-04T12:45:04;100747.60;;;20.98;71.55
47913;BME280;33676;51.006;17.180;2022-10-04T12:51:04;100752.45;;;21.01;71.14
47913;BME280;33676;51.006;17.180;2022-10-04T12:54:26;100753.34;;;20.46;69.45
47913;BME280;33676;51.006;17.180;2022-10-04T12:57:18;100754.05;;;19.94;69.44
47913;BME280;33676;51.006;17.180;2022-10-04T13:00:18;100747.66;;;19.84;69.45
47913;BME280;33676;51.006;17.180;2022-10-04T13:09:06;100743.23;;;20.16;70.35
47913;BME280;33676;51.006;17.180;2022-10-04T13:11:53;100745.63;;;20.41;70.02
47913;BME280;33676;51.006;17.180;2022-10-04T13:14:32;100743.48;;;20.60;70.03
47913;BME280;33676;51.006;17.180;2022-10-04T13:31:54;100752.12;;;21.97;69.30
47913;BME280;33676;51.006;17.180;2022-10-04T13:34:46;100748.85;;;22.23;68.64
47913;BME280;33676;51.006;17.180;2022-10-04T13:40:37;100751.27;;;22.82;68.48
47913;BME280;33676;51.006;17.180;2022-10-04T13:46:22;100752.38;;;23.12;67.47
47913;BME280;33676;51.006;17.180;2022-10-04T13:52:18;100757.11;;;22.50;67.36
47913;BME280;33676;51.006;17.180;2022-10-04T13:59:05;100761.52;;;21.13;67.22
47913;BME280;33676;51.006;17.180;2022-10-04T14:02:19;100759.80;;;20.76;67.80
47913;BME280;33676;51.006;17.180;2022-10-04T14:15:00;100760.95;;;22.09;68.94
47913;BME280;33676;51.006;17.180;2022-10-04T14:21:41;100761.56;;;22.54;67.15
47913;BME280;33676;51.006;17.180;2022-10-04T14:30:56;100764.70;;;23.15;65.37
47913;BME280;33676;51.006;17.180;2022-10-04T14:36:58;100773.51;;;23.61;64.91
47913;BME280;33676;51.006;17.180;2022-10-04T14:49:06;100773.25;;;24.28;65.12
47913;BME280;33676;51.006;17.180;2022-10-04T14:52:26;100780.44;;;24.52;64.48
47913;BME280;33676;51.006;17.180;2022-10-04T14:58:23;100786.48;;;24.70;63.41
47913;BME280;33676;51.006;17.180;2022-10-04T15:04:22;100782.01;;;24.25;63.03
47913;BME280;33676;51.006;17.180;2022-10-04T15:07:03;100785.44;;;24.30;62.96
47913;BME280;33676;51.006;17.180;2022-10-04T15:13:19;100793.09;;;24.66;63.77
47913;BME280;33676;51.006;17.180;2022-10-04T15:16:12;100793.89;;;24.85;63.00
47913;BME280;33676;51.006;17.180;2022-10-04T15:19:09;100796.20;;;24.77;62.17
47913;BME280;33676;51.006;17.180;2022-10-04T15:22:25;100798.14;;;25.03;63.15
47913;BME280;33676;51.006;17.180;2022-10-04T15:24:55;100800.68;;;25.35;62.99
47913;BME280;33676;51.006;17.180;2022-10-04T15:30:58;100800.36;;;25.57;62.70
47913;BME280;33676;51.006;17.180;2022-10-04T15:37:12;100806.30;;;23.60;61.48
47913;BME280;33676;51.006;17.180;2022-10-04T15:40:34;100811.34;;;22.52;62.08
47913;BME280;33676;51.006;17.180;2022-10-04T15:43:40;100817.16;;;21.67;62.34
47913;BME280;33676;51.006;17.180;2022-10-04T15:46:30;100816.79;;;21.55;63.21
47913;BME280;33676;51.006;17.180;2022-10-04T15:49:12;100816.66;;;21.42;64.33
47913;BME280;33676;51.006;17.180;2022-10-04T15:52:03;100817.96;;;21.22;65.01
47913;BME280;33676;51.006;17.180;2022-10-04T16:09:44;100814.62;;;18.72;68.03
47913;BME280;33676;51.006;17.180;2022-10-04T16:12:27;100820.16;;;18.39;68.64
47913;BME280;33676;51.006;17.180;2022-10-04T16:25:44;100821.04;;;16.92;70.92
47913;BME280;33676;51.006;17.180;2022-10-04T16:31:51;100823.58;;;16.43;71.75
47913;BME280;33676;51.006;17.180;2022-10-04T16:48:36;100826.39;;;14.96;74.61
47913;BME280;33676;51.006;17.180;2022-10-04T16:56:29;100829.95;;;14.42;75.79
47913;BME280;33676;51.006;17.180;2022-10-04T16:59:10;100829.21;;;14.27;76.22
47913;BME280;33676;51.006;17.180;2022-10-04T17:05:43;100828.95;;;13.92;76.95
47913;BME280;33676;51.006;17.180;2022-10-04T17:13:31;100828.36;;;13.55;77.84
47913;BME280;33676;51.006;17.180;2022-10-04T17:16:22;100838.38;;;13.42;78.38
47913;BME280;33676;51.006;17.180;2022-10-04T17:19:34;100838.08;;;13.26;78.74
47913;BME280;33676;51.006;17.180;2022-10-04T17:23:05;100838.63;;;13.12;79.12
47913;BME280;33676;51.006;17.180;2022-10-04T17:31:58;100830.89;;;12.77;80.34
47913;BME280;33676;51.006;17.180;2022-10-04T17:41:58;100839.05;;;12.49;81.39
47913;BME280;33676;51.006;17.180;2022-10-04T17:44:44;100833.63;;;12.38;81.63
47913;BME280;33676;51.006;17.180;2022-10-04T17:47:38;100840.45;;;12.29;81.86
47913;BME280;33676;51.006;17.180;2022-10-04T17:50:55;100843.73;;;12.18;81.94
47913;BME280;33676;51.006;17.180;2022-10-04T17:53:52;100847.98;;;12.06;82.16
47913;BME280;33676;51.006;17.180;2022-10-04T17:56:51;100846.80;;;11.96;82.46
47913;BME280;33676;51.006;17.180;2022-10-04T17:59:28;100845.29;;;11.88;82.85
47913;BME280;33676;51.006;17.180;2022-10-04T18:02:08;100847.17;;;11.82;82.99
47913;BME280;33676;51.006;17.180;2022-10-04T18:11:23;100854.20;;;11.62;83.99
47913;BME280;33676;51.006;17.180;2022-10-04T18:17:13;100856.95;;;11.48;84.37
47913;BME280;33676;51.006;17.180;2022-10-04T18:25:57;100870.02;;;11.30;85.23
47913;BME280;33676;51.006;17.180;2022-10-04T18:28:26;100873.42;;;11.23;85.12
47913;BME280;33676;51.006;17.180;2022-10-04T18:33:51;100881.70;;;11.06;85.02
47913;BME280;33676;51.006;17.180;2022-10-04T18:36:30;100883.63;;;10.91;85.00
47913;BME280;33676;51.006;17.180;2022-10-04T18:39:26;100885.52;;;10.74;84.97
47913;BME280;33676;51.006;17.180;2022-10-04T18:42:28;100891.14;;;10.63;85.30
47913;BME280;33676;51.006;17.180;2022-10-04T18:45:00;100893.58;;;10.48;85.44
47913;BME280;33676;51.006;17.180;2022-10-04T18:47:38;100892.88;;;10.38;85.62
47913;BME280;33676;51.006;17.180;2022-10-04T18:50:21;100893.29;;;10.27;85.89
47913;BME280;33676;51.006;17.180;2022-10-04T18:56:10;100895.95;;;10.10;86.50
47913;BME280;33676;51.006;17.180;2022-10-04T18:59:05;100902.56;;;10.02;86.62
47913;BME280;33676;51.006;17.180;2022-10-04T19:04:58;100906.10;;;9.88;87.20
47913;BME280;33676;51.006;17.180;2022-10-04T19:08:07;100905.15;;;9.81;87.36
47913;BME280;33676;51.006;17.180;2022-10-04T19:11:21;100904.82;;;9.76;87.65
47913;BME280;33676;51.006;17.180;2022-10-04T19:17:08;100911.77;;;9.63;88.10
47913;BME280;33676;51.006;17.180;2022-10-04T19:20:12;100919.85;;;9.54;88.23
47913;BME280;33676;51.006;17.180;2022-10-04T19:22:52;100917.02;;;9.46;88.33
47913;BME280;33676;51.006;17.180;2022-10-04T19:25:46;100911.52;;;9.40;88.54
47913;BME280;33676;51.006;17.180;2022-10-04T19:28:37;100909.46;;;9.31;88.57
47913;BME280;33676;51.006;17.180;2022-10-04T19:34:17;100907.27;;;9.21;89.18
47913;BME280;33676;51.006;17.180;2022-10-04T19:37:06;100902.34;;;9.16;89.41
47913;BME280;33676;51.006;17.180;2022-10-04T19:43:06;100904.56;;;9.03;89.68
47913;BME280;33676;51.006;17.180;2022-10-04T19:48:50;100910.30;;;8.89;89.93
47913;BME280;33676;51.006;17.180;2022-10-04T19:51:33;100910.35;;;8.85;90.37
47913;BME280;33676;51.006;17.180;2022-10-04T19:54:10;100908.52;;;8.82;90.49
47913;BME280;33676;51.006;17.180;2022-10-04T19:56:48;100910.67;;;8.78;90.53
47913;BME280;33676;51.006;17.180;2022-10-04T19:59:37;100912.82;;;8.74;90.63
47913;BME280;33676;51.006;17.180;2022-10-04T20:02:09;100912.35;;;8.70;90.63
47913;BME280;33676;51.006;17.180;2022-10-04T20:04:39;100912.56;;;8.67;90.66
47913;BME280;33676;51.006;17.180;2022-10-04T20:12:36;100911.81;;;8.55;91.01
47913;BME280;33676;51.006;17.180;2022-10-04T20:17:46;100915.73;;;8.48;91.39
47913;BME280;33676;51.006;17.180;2022-10-04T20:23:09;100927.26;;;8.42;91.70
47913;BME280;33676;51.006;17.180;2022-10-04T20:30:57;100930.89;;;8.36;92.41
47913;BME280;33676;51.006;17.180;2022-10-04T20:38:44;100943.27;;;8.30;92.65
47913;BME280;33676;51.006;17.180;2022-10-04T20:44:00;100931.23;;;8.21;93.09
47913;BME280;33676;51.006;17.180;2022-10-04T20:46:38;100927.23;;;8.19;93.36
47913;BME280;33676;51.006;17.180;2022-10-04T20:49:15;100923.33;;;8.17;93.65
47913;BME280;33676;51.006;17.180;2022-10-04T20:51:48;100919.01;;;8.13;93.61
47913;BME280;33676;51.006;17.180;2022-10-04T20:54:18;100920.23;;;8.10;93.50
47913;BME280;33676;51.006;17.180;2022-10-04T20:56:49;100919.05;;;8.06;93.55
47913;BME280;33676;51.006;17.180;2022-10-04T20:59:17;100917.83;;;8.03;93.95
47913;BME280;33676;51.006;17.180;2022-10-04T21:02:02;100921.23;;;8.01;94.34
47913;BME280;33676;51.006;17.180;2022-10-04T21:04:37;100917.02;;;7.99;94.50
47913;BME280;33676;51.006;17.180;2022-10-04T21:07:23;100920.92;;;7.97;94.72
47913;BME280;33676;51.006;17.180;2022-10-04T21:09:52;100922.02;;;7.96;95.02
47913;BME280;33676;51.006;17.180;2022-10-04T21:15:20;100925.19;;;7.96;95.80
47913;BME280;33676;51.006;17.180;2022-10-04T21:18:07;100931.46;;;7.96;95.96
47913;BME280;33676;51.006;17.180;2022-10-04T21:20:50;100933.45;;;7.95;96.04
47913;BME280;33676;51.006;17.180;2022-10-04T21:23:31;100936.10;;;7.94;95.90
47913;BME280;33676;51.006;17.180;2022-10-04T21:26:23;100939.52;;;7.92;95.79
47913;BME280;33676;51.006;17.180;2022-10-04T21:28:54;100940.48;;;7.90;95.82
47913;BME280;33676;51.006;17.180;2022-10-04T21:31:24;100938.15;;;7.88;95.84
47913;BME280;33676;51.006;17.180;2022-10-04T21:33:53;100939.14;;;7.86;95.82
47913;BME280;33676;51.006;17.180;2022-10-04T21:36:21;100936.98;;;7.84;96.03
47913;BME280;33676;51.006;17.180;2022-10-04T21:38:49;100935.02;;;7.82;96.16
47913;BME280;33676;51.006;17.180;2022-10-04T21:41:21;100932.18;;;7.80;96.31
47913;BME280;33676;51.006;17.180;2022-10-04T21:43:49;100940.89;;;7.78;96.29
47913;BME280;33676;51.006;17.180;2022-10-04T21:46:17;100952.09;;;7.76;96.31